Terminal Aerodrome Forecast
Issued by NWS South Bend, IN

Home | Current Version | Previous Version | Text Only | Print | Product List | Glossary Off
Versions: 1 2 3 4 5 6 7 8 9 10 11 12 13 14

000
FTUS43 KIWX 020500
TAFSBN
TAF
KSBN 020533Z 0206/0306 21003KT P6SM SCT140 BKN250
     FM021500 23008KT P6SM FEW050
     FM030000 19006KT P6SM SCT250=

USA.gov is the U.S. government's official web portal to all federal, state and local government web resources and services.